createdAt,value
2022-08-19T00:01:56.602Z,5.00
2022-08-19T00:04:28.839Z,4.90
2022-08-19T00:06:58.239Z,4.30
2022-08-19T00:09:27.348Z,5.13
2022-08-19T00:11:57.340Z,5.05
2022-08-19T00:14:27.191Z,4.38
2022-08-19T00:16:56.437Z,4.70
2022-08-19T00:19:25.796Z,4.30
2022-08-19T00:21:54.466Z,4.53
2022-08-19T00:24:24.508Z,4.00
2022-08-19T00:26:53.176Z,4.40
2022-08-19T00:29:23.073Z,4.40
2022-08-19T00:31:54.208Z,4.17
2022-08-19T00:34:23.119Z,4.90
2022-08-19T00:36:51.364Z,4.73
2022-08-19T00:39:20.181Z,3.80
2022-08-19T00:41:51.544Z,3.77
2022-08-19T00:44:26.711Z,3.90
2022-08-19T00:46:58.191Z,3.45
2022-08-19T00:49:31.694Z,3.20
2022-08-19T00:52:05.035Z,3.07
2022-08-19T00:54:34.096Z,2.90
2022-08-19T00:57:07.202Z,2.63
2022-08-19T00:59:56.502Z,3.08
2022-08-19T01:02:27.138Z,3.03
2022-08-19T01:04:55.549Z,2.70
2022-08-19T01:07:24.193Z,3.08
2022-08-19T01:09:52.579Z,3.63
2022-08-19T01:12:22.611Z,3.23
2022-08-19T01:14:51.920Z,3.00
2022-08-19T01:17:21.168Z,3.90
2022-08-19T01:19:49.671Z,3.30
2022-08-19T01:22:30.142Z,3.60
2022-08-19T01:25:01.017Z,3.53
2022-08-19T01:27:35.286Z,3.75
2022-08-19T01:30:13.346Z,4.03
2022-08-19T01:32:50.326Z,4.20
2022-08-19T01:35:54.078Z,3.83
2022-08-19T01:38:55.566Z,3.90
2022-08-19T01:41:26.022Z,4.28
2022-08-19T01:44:17.386Z,4.10
2022-08-19T01:46:42.885Z,4.43
2022-08-19T01:49:11.209Z,4.30
2022-08-19T01:51:40.548Z,4.60
2022-08-19T01:54:08.822Z,4.67
2022-08-19T01:56:39.301Z,4.38
2022-08-19T01:59:12.479Z,4.70
2022-08-19T02:01:40.500Z,4.40
2022-08-19T02:04:09.229Z,4.90
2022-08-19T02:06:37.498Z,4.55
2022-08-19T02:09:09.693Z,4.53
2022-08-19T02:11:40.237Z,4.80
2022-08-19T02:14:09.889Z,4.50
2022-08-19T02:16:38.894Z,4.32
2022-08-19T02:19:06.893Z,4.60
2022-08-19T02:21:35.509Z,4.30
2022-08-19T02:24:03.958Z,4.85
2022-08-19T02:26:31.991Z,4.97
2022-08-19T02:29:01.382Z,4.80
2022-08-19T02:31:29.994Z,5.20
2022-08-19T02:33:58.784Z,5.07
2022-08-19T02:36:27.234Z,5.18
2022-08-19T02:38:55.926Z,5.40
2022-08-19T02:41:26.584Z,5.38
2022-08-19T02:44:18.366Z,5.55
2022-08-19T02:46:47.351Z,5.72
2022-08-19T02:49:17.422Z,5.57
2022-08-19T02:51:47.665Z,4.95
2022-08-19T02:54:16.838Z,6.03
2022-08-19T02:56:45.669Z,5.90
2022-08-19T02:59:13.952Z,5.97
2022-08-19T03:01:44.533Z,5.68
2022-08-19T03:04:16.649Z,5.83
2022-08-19T03:06:47.001Z,5.93
2022-08-19T03:09:15.948Z,5.43
2022-08-19T03:11:44.206Z,5.22
2022-08-19T03:14:12.707Z,5.77
2022-08-19T03:16:46.216Z,5.88
2022-08-19T03:19:14.760Z,5.85
2022-08-19T03:21:45.574Z,5.57
2022-08-19T03:24:14.586Z,5.50
2022-08-19T03:26:44.059Z,5.97
2022-08-19T03:29:13.205Z,5.07
2022-08-19T03:31:52.270Z,5.32
2022-08-19T03:34:27.248Z,5.03
2022-08-19T03:36:56.126Z,4.57
2022-08-19T03:39:25.463Z,4.75
2022-08-19T03:42:31.916Z,5.30
2022-08-19T03:44:45.926Z,4.97
2022-08-19T03:47:17.083Z,5.10
2022-08-19T03:49:47.349Z,5.20
2022-08-19T03:52:15.974Z,4.72
2022-08-19T03:54:44.060Z,4.63
2022-08-19T03:57:12.163Z,5.07
2022-08-19T03:59:40.723Z,4.90
2022-08-19T04:02:12.875Z,4.60
2022-08-19T04:04:44.346Z,5.35
2022-08-19T04:07:16.851Z,4.57
2022-08-19T04:09:44.902Z,4.50
2022-08-19T04:12:12.865Z,5.07
2022-08-19T04:14:40.882Z,4.80
2022-08-19T04:17:09.140Z,4.30
2022-08-19T04:19:37.985Z,4.70
2022-08-19T04:22:08.919Z,4.85
2022-08-19T04:24:38.364Z,4.65
2022-08-19T04:27:07.580Z,5.20
2022-08-19T04:29:36.188Z,5.10
2022-08-19T04:32:08.666Z,5.25
2022-08-19T04:35:02.298Z,5.57
2022-08-19T04:37:27.617Z,5.50
2022-08-19T04:40:24.533Z,6.13
2022-08-19T04:42:52.722Z,5.82
2022-08-19T04:45:22.909Z,5.60
2022-08-19T04:47:58.353Z,5.60
2022-08-19T04:50:43.327Z,6.07
2022-08-19T04:53:12.134Z,5.45
2022-08-19T04:55:45.017Z,5.70
2022-08-19T04:58:13.005Z,5.80
2022-08-19T05:00:41.987Z,5.80
2022-08-19T05:03:10.211Z,5.83
2022-08-19T05:05:44.816Z,5.72
2022-08-19T05:08:14.165Z,5.60
2022-08-19T05:10:45.522Z,5.93
2022-08-19T05:13:13.615Z,5.90
2022-08-19T05:15:41.664Z,6.47
2022-08-19T05:18:27.428Z,6.30
2022-08-19T05:21:13.176Z,6.20
2022-08-19T05:23:41.513Z,6.10
2022-08-19T05:26:12.231Z,5.70
2022-08-19T05:28:40.254Z,5.97
2022-08-19T05:31:08.236Z,5.78
2022-08-19T05:33:36.356Z,5.95
2022-08-19T05:36:05.570Z,5.43
2022-08-19T05:38:33.534Z,5.50
2022-08-19T05:41:01.488Z,6.00
2022-08-19T05:43:30.877Z,6.20
2022-08-19T05:45:59.428Z,5.50
2022-08-19T05:48:27.457Z,5.63
2022-08-19T05:50:55.415Z,5.27
2022-08-19T05:53:23.374Z,5.50
2022-08-19T05:55:51.406Z,5.63
2022-08-19T05:58:19.432Z,5.80
2022-08-19T06:00:52.592Z,6.32
2022-08-19T06:03:20.563Z,5.97
2022-08-19T06:05:51.962Z,5.80
2022-08-19T06:08:34.220Z,5.43
2022-08-19T06:11:16.919Z,6.00
2022-08-19T06:13:46.112Z,6.30
2022-08-19T06:16:20.382Z,6.78
2022-08-19T06:18:48.491Z,5.78
2022-08-19T06:21:16.609Z,5.93
2022-08-19T06:23:44.555Z,5.43
2022-08-19T06:26:14.238Z,5.57
2022-08-19T06:28:44.610Z,5.90
2022-08-19T06:31:15.013Z,5.75
2022-08-19T06:33:45.859Z,5.50
2022-08-19T06:36:20.026Z,5.22
2022-08-19T06:38:48.037Z,5.65
2022-08-19T06:41:16.475Z,5.20
2022-08-19T06:43:44.909Z,5.43
2022-08-19T06:46:16.601Z,5.47
2022-08-19T06:48:46.831Z,5.60
2022-08-19T06:51:19.706Z,5.50
2022-08-19T06:56:17.641Z,5.72
2022-08-19T06:58:45.774Z,6.22
2022-08-19T07:01:13.739Z,4.68
2022-08-19T07:03:42.007Z,5.40
2022-08-19T07:06:39.427Z,4.18
2022-08-19T07:09:01.717Z,3.63
2022-08-19T07:11:37.218Z,3.80
2022-08-19T07:14:16.699Z,4.50
2022-08-19T07:16:50.396Z,3.60
2022-08-19T07:19:23.410Z,3.30
2022-08-19T07:21:53.995Z,3.80
2022-08-19T07:24:24.405Z,4.32
2022-08-19T07:26:54.324Z,3.47
2022-08-19T07:29:25.804Z,2.70
2022-08-19T07:32:00.840Z,3.58
2022-08-19T07:34:31.179Z,4.25
2022-08-19T07:37:08.657Z,3.40
2022-08-19T07:39:38.669Z,3.42
2022-08-19T07:42:10.864Z,3.92
2022-08-19T07:44:49.836Z,3.65
2022-08-19T07:47:58.506Z,4.10
2022-08-19T07:50:12.200Z,4.07
2022-08-19T07:52:41.827Z,3.75
2022-08-19T07:55:40.364Z,4.28
2022-08-19T07:58:00.007Z,4.70
2022-08-19T08:00:28.020Z,4.03
2022-08-19T08:02:56.244Z,4.50
2022-08-19T08:05:43.900Z,4.57
2022-08-19T08:08:32.161Z,4.18
2022-08-19T08:11:00.725Z,4.80
2022-08-19T08:13:29.716Z,4.57
2022-08-19T08:15:58.833Z,4.72
2022-08-19T08:18:27.668Z,4.72
2022-08-19T08:20:56.589Z,4.88
2022-08-19T08:23:27.356Z,4.55
2022-08-19T08:25:57.929Z,4.25
2022-08-19T08:28:29.562Z,4.70
2022-08-19T08:30:59.150Z,4.70
2022-08-19T08:33:33.832Z,4.78
2022-08-19T08:36:04.935Z,4.38
2022-08-19T08:38:39.705Z,4.30
2022-08-19T08:41:21.258Z,4.28
2022-08-19T08:43:53.185Z,4.63
2022-08-19T08:46:30.944Z,4.47
2022-08-19T08:49:06.650Z,4.28
2022-08-19T08:51:39.208Z,4.75
2022-08-19T08:54:12.190Z,4.32
2022-08-19T08:56:41.056Z,4.47
2022-08-19T08:59:18.255Z,4.03
2022-08-19T09:01:46.779Z,4.50
2022-08-19T09:04:15.185Z,4.47
2022-08-19T09:06:54.048Z,4.35
2022-08-19T09:09:33.330Z,4.55
2022-08-19T09:12:11.987Z,3.53
2022-08-19T09:14:50.613Z,3.42
2022-08-19T09:17:21.998Z,3.40
2022-08-19T09:19:55.399Z,3.67
2022-08-19T09:22:25.690Z,3.90
2022-08-19T09:24:56.875Z,4.03
2022-08-19T09:27:42.117Z,3.58
2022-08-19T09:30:15.142Z,2.88
2022-08-19T09:32:44.478Z,3.53
2022-08-19T09:35:13.578Z,3.05
2022-08-19T09:37:41.891Z,3.35
2022-08-19T09:40:15.808Z,3.35
2022-08-19T09:42:50.187Z,3.22
2022-08-19T09:45:23.087Z,3.25
2022-08-19T09:47:53.834Z,3.42
2022-08-19T09:50:23.420Z,3.28
2022-08-19T09:52:55.421Z,3.53
2022-08-19T09:55:32.044Z,3.08
2022-08-19T09:58:01.954Z,3.35
2022-08-19T10:00:31.235Z,2.92
2022-08-19T10:02:59.255Z,3.45
2022-08-19T10:05:48.431Z,2.95
2022-08-19T10:08:17.820Z,2.63
2022-08-19T10:10:48.124Z,2.85
2022-08-19T10:13:18.196Z,2.67
2022-08-19T10:15:48.117Z,3.08
2022-08-19T10:18:19.469Z,2.33
2022-08-19T10:20:51.637Z,2.80
2022-08-19T10:23:22.263Z,2.63
2022-08-19T10:25:54.585Z,2.55
2022-08-19T10:28:24.127Z,2.30
2022-08-19T10:30:52.683Z,1.90
2022-08-19T10:33:38.592Z,2.70
2022-08-19T10:36:16.323Z,2.55
2022-08-19T10:38:56.185Z,2.58
2022-08-19T10:41:27.901Z,2.42
2022-08-19T10:43:58.997Z,3.10
2022-08-19T10:46:33.752Z,2.72
2022-08-19T10:49:02.799Z,2.90
2022-08-19T10:51:48.862Z,2.75
2022-08-19T10:54:17.763Z,2.60
2022-08-19T10:56:59.746Z,2.60
2022-08-19T10:59:35.295Z,2.33
2022-08-19T11:02:06.227Z,2.83
2022-08-19T11:04:35.611Z,2.90
2022-08-19T11:07:04.639Z,2.50
2022-08-19T11:09:34.297Z,2.22
2022-08-19T11:12:05.021Z,2.22
2022-08-19T11:14:41.285Z,2.40
2022-08-19T11:17:12.263Z,2.72
2022-08-19T11:19:43.384Z,2.35
2022-08-19T11:22:11.810Z,3.50
2022-08-19T11:24:44.116Z,2.53
2022-08-19T11:27:13.551Z,2.85
2022-08-19T11:29:44.185Z,2.97
2022-08-19T11:32:13.899Z,2.67
2022-08-19T11:34:42.134Z,3.30
2022-08-19T11:37:10.182Z,2.60
2022-08-19T11:39:39.452Z,2.50
2022-08-19T11:42:29.094Z,2.58
2022-08-19T11:44:58.438Z,2.20
2022-08-19T11:47:27.284Z,2.40
2022-08-19T11:49:55.363Z,2.35
2022-08-19T11:52:23.447Z,2.63
2022-08-19T11:54:51.375Z,2.40
2022-08-19T11:57:20.698Z,2.63
2022-08-19T11:59:52.333Z,2.70
2022-08-19T12:02:22.691Z,2.60
2022-08-19T12:04:50.823Z,2.47
2022-08-19T12:07:21.457Z,2.60
2022-08-19T12:09:49.516Z,2.70
2022-08-19T12:12:17.533Z,2.65
2022-08-19T12:14:47.471Z,2.50
2022-08-19T12:17:15.475Z,2.38
2022-08-19T12:19:45.608Z,2.80
2022-08-19T12:22:13.869Z,2.72
2022-08-19T12:24:42.396Z,3.10
2022-08-19T12:27:12.541Z,2.90
2022-08-19T12:29:42.616Z,2.75
2022-08-19T12:32:12.135Z,2.80
2022-08-19T12:34:40.427Z,2.92
2022-08-19T12:37:10.214Z,2.60
2022-08-19T12:39:43.031Z,2.60
2022-08-19T12:42:19.002Z,2.85
2022-08-19T12:44:49.173Z,2.95
2022-08-19T12:47:19.710Z,2.30
2022-08-19T12:49:53.261Z,2.35
2022-08-19T12:52:26.075Z,2.80
2022-08-19T12:54:55.710Z,2.42
2022-08-19T12:57:32.338Z,2.67
2022-08-19T13:00:05.546Z,2.30
2022-08-19T13:02:38.721Z,2.58
2022-08-19T13:05:12.110Z,2.50
2022-08-19T13:07:45.011Z,2.17
2022-08-19T13:10:16.483Z,2.85
2022-08-19T13:12:44.901Z,2.78
2022-08-19T13:15:15.236Z,2.55
2022-08-19T13:17:44.106Z,2.50
2022-08-19T13:20:13.260Z,2.70
2022-08-19T13:22:43.361Z,2.40
2022-08-19T13:25:11.705Z,2.58
2022-08-19T13:27:41.073Z,2.45
2022-08-19T13:30:31.715Z,2.40
2022-08-19T13:33:13.025Z,2.85
2022-08-19T13:35:49.449Z,2.20
2022-08-19T13:38:22.625Z,2.40
2022-08-19T13:40:52.565Z,2.40
2022-08-19T13:43:23.770Z,2.47
2022-08-19T13:45:53.814Z,2.22
2022-08-19T13:48:22.020Z,2.42
2022-08-19T13:50:50.228Z,2.28
2022-08-19T13:53:21.935Z,2.40
2022-08-19T13:55:51.465Z,2.22
2022-08-19T13:58:19.772Z,2.38
2022-08-19T14:00:49.381Z,2.50
2022-08-19T14:03:17.729Z,2.40
2022-08-19T14:05:47.020Z,2.63
2022-08-19T14:08:15.358Z,3.20
2022-08-19T14:10:48.517Z,2.63
2022-08-19T14:13:18.687Z,2.60
2022-08-19T14:15:47.043Z,2.45
2022-08-19T14:18:16.260Z,2.30
2022-08-19T14:20:44.735Z,2.58
2022-08-19T14:23:13.249Z,2.22
2022-08-19T14:25:41.721Z,2.20
2022-08-19T14:28:11.092Z,2.30
2022-08-19T14:30:40.104Z,2.25
2022-08-19T14:33:09.478Z,2.55
2022-08-19T14:35:37.556Z,2.67
2022-08-19T14:38:07.565Z,2.28
2022-08-19T14:40:38.332Z,2.70
2022-08-19T14:43:07.163Z,2.50
2022-08-19T14:45:39.324Z,2.30
2022-08-19T14:48:12.539Z,2.33
2022-08-19T14:50:47.865Z,2.65
2022-08-19T14:53:17.979Z,2.40
2022-08-19T14:55:47.615Z,2.53
2022-08-19T14:58:29.184Z,2.22
2022-08-19T15:01:02.748Z,2.40
2022-08-19T15:03:32.558Z,2.40
2022-08-19T15:06:02.198Z,2.28
2022-08-19T15:08:31.690Z,2.25
2022-08-19T15:11:01.084Z,2.38
2022-08-19T15:13:31.094Z,2.55
2022-08-19T15:15:59.365Z,2.28
2022-08-19T15:18:28.816Z,2.30
2022-08-19T15:20:57.831Z,2.50
2022-08-19T15:23:25.928Z,2.60
2022-08-19T15:25:55.945Z,2.30
2022-08-19T15:28:25.139Z,2.55
2022-08-19T15:30:53.680Z,2.40
2022-08-19T15:33:21.953Z,2.60
2022-08-19T15:35:52.514Z,2.22
2022-08-19T15:38:22.191Z,2.70
2022-08-19T15:40:51.315Z,2.60
2022-08-19T15:43:22.201Z,2.65
2022-08-19T15:45:50.318Z,2.67
2022-08-19T15:48:18.612Z,2.33
2022-08-19T15:50:46.644Z,2.42
2022-08-19T15:53:21.143Z,2.28
2022-08-19T15:55:51.200Z,2.60
2022-08-19T15:58:44.872Z,2.60
2022-08-19T16:01:44.727Z,2.50
2022-08-19T16:04:30.514Z,2.65
2022-08-19T16:07:00.354Z,2.42
2022-08-19T16:09:32.167Z,2.33
2022-08-19T16:12:02.733Z,2.55
2022-08-19T16:14:31.904Z,2.50
2022-08-19T16:17:00.115Z,2.60
2022-08-19T16:19:28.061Z,2.70
2022-08-19T16:21:57.608Z,2.35
2022-08-19T16:24:27.820Z,2.85
2022-08-19T16:26:58.027Z,2.40
2022-08-19T16:29:34.533Z,2.70
2022-08-19T16:32:11.062Z,2.50
2022-08-19T16:34:40.155Z,2.58
2022-08-19T16:37:08.227Z,2.58
2022-08-19T16:39:36.221Z,2.55
2022-08-19T16:42:08.544Z,2.53
2022-08-19T16:44:36.834Z,2.67
2022-08-19T16:47:04.958Z,2.83
2022-08-19T16:49:54.103Z,2.65
2022-08-19T16:52:21.574Z,2.80
2022-08-19T16:54:50.004Z,2.63
2022-08-19T16:57:19.500Z,2.50
2022-08-19T16:59:49.077Z,3.00
2022-08-19T17:02:18.309Z,2.70
2022-08-19T17:04:55.654Z,2.97
2022-08-19T17:07:25.863Z,2.80
2022-08-19T17:09:53.868Z,2.70
2022-08-19T17:12:30.433Z,2.50
2022-08-19T17:15:01.184Z,2.42
2022-08-19T17:17:29.836Z,2.72
2022-08-19T17:19:59.134Z,2.58
2022-08-19T17:22:27.197Z,2.58
2022-08-19T17:24:56.226Z,2.67
2022-08-19T17:27:32.269Z,2.88
2022-08-19T17:30:02.651Z,2.60
2022-08-19T17:32:34.365Z,2.70
2022-08-19T17:35:02.553Z,2.60
2022-08-19T17:37:30.509Z,3.03
2022-08-19T17:39:58.551Z,3.05
2022-08-19T17:42:28.023Z,2.90
2022-08-19T17:44:59.454Z,3.20
2022-08-19T17:47:28.419Z,2.58
2022-08-19T17:49:56.787Z,3.03
2022-08-19T17:52:25.031Z,2.72
2022-08-19T17:54:53.067Z,2.65
2022-08-19T17:57:21.044Z,2.97
2022-08-19T17:59:50.548Z,3.40
2022-08-19T18:02:20.638Z,2.92
2022-08-19T18:04:50.023Z,2.97
2022-08-19T18:07:19.556Z,3.03
2022-08-19T18:09:50.546Z,2.95
2022-08-19T18:12:24.574Z,2.78
2022-08-19T18:14:53.960Z,3.00
2022-08-19T18:17:23.414Z,3.20
2022-08-19T18:19:51.643Z,3.10
2022-08-19T18:22:26.806Z,2.83
2022-08-19T18:24:55.055Z,2.88
2022-08-19T18:27:23.278Z,3.13
2022-08-19T18:29:51.393Z,3.10
2022-08-19T18:32:24.107Z,3.65
2022-08-19T18:34:53.129Z,3.47
2022-08-19T18:37:22.062Z,4.22
2022-08-19T18:40:07.857Z,4.07
2022-08-19T18:42:53.014Z,5.30
2022-08-19T18:45:38.390Z,4.38
2022-08-19T18:48:28.324Z,4.13
2022-08-19T18:51:00.675Z,3.67
2022-08-19T18:53:31.209Z,3.83
2022-08-19T18:55:59.871Z,3.88
2022-08-19T18:58:34.121Z,4.40
2022-08-19T19:01:11.444Z,4.03
2022-08-19T19:03:45.726Z,5.25
2022-08-19T19:06:14.480Z,4.95
2022-08-19T19:08:43.448Z,5.18
2022-08-19T19:11:11.578Z,5.47
2022-08-19T19:13:41.105Z,5.47
2022-08-19T19:16:12.548Z,4.97
2022-08-19T19:18:42.571Z,5.13
2022-08-19T19:21:11.140Z,5.22
2022-08-19T19:23:41.006Z,5.07
2022-08-19T19:26:10.650Z,5.22
2022-08-19T19:28:45.170Z,4.88
2022-08-19T19:31:16.058Z,4.82
2022-08-19T19:33:46.549Z,4.93
2022-08-19T19:36:15.078Z,4.85
2022-08-19T19:38:48.714Z,4.65
2022-08-19T19:41:19.731Z,4.65
2022-08-19T19:43:56.675Z,4.70
2022-08-19T19:46:37.738Z,4.55
2022-08-19T19:49:07.404Z,5.53
2022-08-19T19:51:37.737Z,5.43
2022-08-19T19:54:06.082Z,5.05
2022-08-19T19:56:34.464Z,5.50
2022-08-19T19:59:03.564Z,5.18
2022-08-19T20:01:31.680Z,5.00
2022-08-19T20:04:01.784Z,5.32
2022-08-19T20:06:31.152Z,5.35
2022-08-19T20:09:10.991Z,5.05
2022-08-19T20:11:42.610Z,5.00
2022-08-19T20:14:12.753Z,4.97
2022-08-19T20:16:43.611Z,5.13
2022-08-19T20:19:13.884Z,4.82
2022-08-19T20:21:47.540Z,5.10
2022-08-19T20:24:28.062Z,4.75
2022-08-19T20:26:56.072Z,4.35
2022-08-19T20:29:39.326Z,4.90
2022-08-19T20:32:10.731Z,4.63
2022-08-19T20:34:39.270Z,5.10
2022-08-19T20:37:09.902Z,4.38
2022-08-19T20:39:38.117Z,4.85
2022-08-19T20:42:06.558Z,5.57
2022-08-19T20:44:34.643Z,4.97
2022-08-19T20:47:04.105Z,4.75
2022-08-19T20:49:32.877Z,4.63
2022-08-19T20:52:00.878Z,4.50
2022-08-19T20:54:30.927Z,4.88
2022-08-19T20:57:03.655Z,5.30
2022-08-19T20:59:31.658Z,5.13
2022-08-19T21:01:59.618Z,5.10
2022-08-19T21:04:27.552Z,5.30
2022-08-19T21:06:56.540Z,5.18
2022-08-19T21:09:24.559Z,5.70
2022-08-19T21:11:54.412Z,5.85
2022-08-19T21:14:22.904Z,5.22
2022-08-19T21:16:51.198Z,5.20
2022-08-19T21:19:23.419Z,5.38
2022-08-19T21:21:53.492Z,5.32
2022-08-19T21:24:31.419Z,5.03
2022-08-19T21:27:01.806Z,5.88
2022-08-19T21:29:32.488Z,5.15
2022-08-19T21:32:01.077Z,5.32
2022-08-19T21:34:29.509Z,5.60
2022-08-19T21:36:57.567Z,5.28
2022-08-19T21:39:25.548Z,5.97
2022-08-19T21:41:53.762Z,5.10
2022-08-19T21:44:23.192Z,5.32
2022-08-19T21:46:51.165Z,5.65
2022-08-19T21:49:21.261Z,5.20
2022-08-19T21:51:49.911Z,5.05
2022-08-19T21:54:17.856Z,5.28
2022-08-19T21:56:46.400Z,4.80
2022-08-19T21:59:14.348Z,5.03
2022-08-19T22:01:48.228Z,5.38
2022-08-19T22:04:18.560Z,5.15
2022-08-19T22:06:46.509Z,5.30
2022-08-19T22:09:14.676Z,5.35
2022-08-19T22:11:44.396Z,5.72
2022-08-19T22:14:12.417Z,5.45
2022-08-19T22:16:40.455Z,5.65
2022-08-19T22:19:10.009Z,4.70
2022-08-19T22:21:40.731Z,5.00
2022-08-19T22:24:09.920Z,5.45
2022-08-19T22:26:37.906Z,5.55
2022-08-19T22:29:06.723Z,5.20
2022-08-19T22:31:34.643Z,5.88
2022-08-19T22:34:03.737Z,5.25
2022-08-19T22:36:33.126Z,5.78
2022-08-19T22:39:01.593Z,5.25
2022-08-19T22:41:29.630Z,5.55
2022-08-19T22:43:58.147Z,5.68
2022-08-19T22:46:26.075Z,5.03
2022-08-19T22:48:56.665Z,5.15
2022-08-19T22:51:47.372Z,5.82
2022-08-19T22:54:16.841Z,5.07
2022-08-19T22:56:44.812Z,5.32
2022-08-19T22:59:12.833Z,5.38
2022-08-19T23:01:41.857Z,5.07
2022-08-19T23:04:09.952Z,5.47
2022-08-19T23:06:41.489Z,5.85
2022-08-19T23:09:10.397Z,5.53
2022-08-19T23:11:42.225Z,5.28
2022-08-19T23:14:12.621Z,5.47
2022-08-19T23:16:41.430Z,5.35
2022-08-19T23:19:10.407Z,5.45
2022-08-19T23:21:38.547Z,5.50
2022-08-19T23:24:07.021Z,5.72
2022-08-19T23:26:36.059Z,5.57
2022-08-19T23:29:24.570Z,5.40
2022-08-19T23:31:52.729Z,5.07
2022-08-19T23:34:21.042Z,5.30
2022-08-19T23:36:50.858Z,5.60
2022-08-19T23:39:19.363Z,5.57
2022-08-19T23:41:48.173Z,5.60
2022-08-19T23:44:17.503Z,5.55
2022-08-19T23:46:54.556Z,5.53
2022-08-19T23:49:25.408Z,5.60
2022-08-19T23:51:56.620Z,5.70
2022-08-19T23:54:27.537Z,5.30
2022-08-19T23:57:13.469Z,6.00
2022-08-19T23:59:45.449Z,6.20
